sensor_id;sensor_type;location;lat;lon;timestamp;P1;durP1;ratioP1;P2;durP2;ratioP2
57599;SDS011;43426;43.594;24.334;2023-02-15T00:01:17;65.03;;;33.53;;
57599;SDS011;43426;43.594;24.334;2023-02-15T00:03:43;65.10;;;32.70;;
57599;SDS011;43426;43.594;24.334;2023-02-15T00:06:08;62.55;;;32.13;;
57599;SDS011;43426;43.594;24.334;2023-02-15T00:08:34;62.55;;;33.28;;
57599;SDS011;43426;43.594;24.334;2023-02-15T00:11:06;62.57;;;33.20;;
57599;SDS011;43426;43.594;24.334;2023-02-15T00:13:37;61.97;;;31.75;;
57599;SDS011;43426;43.594;24.334;2023-02-15T00:16:07;57.28;;;31.90;;
57599;SDS011;43426;43.594;24.334;2023-02-15T00:18:34;62.92;;;32.67;;
57599;SDS011;43426;43.594;24.334;2023-02-15T00:21:05;62.50;;;33.15;;
57599;SDS011;43426;43.594;24.334;2023-02-15T00:23:32;61.13;;;32.28;;
57599;SDS011;43426;43.594;24.334;2023-02-15T00:26:07;62.05;;;33.05;;
57599;SDS011;43426;43.594;24.334;2023-02-15T00:28:34;67.50;;;35.08;;
57599;SDS011;43426;43.594;24.334;2023-02-15T00:31:04;66.80;;;34.70;;
57599;SDS011;43426;43.594;24.334;2023-02-15T00:33:30;69.63;;;36.08;;
57599;SDS011;43426;43.594;24.334;2023-02-15T00:35:57;74.45;;;37.33;;
57599;SDS011;43426;43.594;24.334;2023-02-15T00:38:23;75.95;;;37.22;;
57599;SDS011;43426;43.594;24.334;2023-02-15T00:40:55;72.85;;;36.03;;
57599;SDS011;43426;43.594;24.334;2023-02-15T00:43:22;79.50;;;36.53;;
57599;SDS011;43426;43.594;24.334;2023-02-15T00:45:47;74.25;;;36.97;;
57599;SDS011;43426;43.594;24.334;2023-02-15T00:48:13;83.07;;;38.17;;
57599;SDS011;43426;43.594;24.334;2023-02-15T00:50:38;83.25;;;38.35;;
57599;SDS011;43426;43.594;24.334;2023-02-15T00:53:04;80.15;;;37.97;;
57599;SDS011;43426;43.594;24.334;2023-02-15T00:55:30;70.30;;;36.92;;
57599;SDS011;43426;43.594;24.334;2023-02-15T00:57:55;77.70;;;37.60;;
57599;SDS011;43426;43.594;24.334;2023-02-15T01:00:20;83.70;;;38.60;;
57599;SDS011;43426;43.594;24.334;2023-02-15T01:02:46;81.80;;;39.75;;
57599;SDS011;43426;43.594;24.334;2023-02-15T01:05:12;82.85;;;39.17;;
57599;SDS011;43426;43.594;24.334;2023-02-15T01:07:37;77.70;;;38.25;;
57599;SDS011;43426;43.594;24.334;2023-02-15T01:10:04;75.55;;;37.10;;
57599;SDS011;43426;43.594;24.334;2023-02-15T01:12:33;84.82;;;39.78;;
57599;SDS011;43426;43.594;24.334;2023-02-15T01:17:24;86.05;;;38.10;;
57599;SDS011;43426;43.594;24.334;2023-02-15T01:19:49;91.80;;;41.38;;
57599;SDS011;43426;43.594;24.334;2023-02-15T01:22:16;84.88;;;40.95;;
57599;SDS011;43426;43.594;24.334;2023-02-15T01:27:10;78.00;;;38.15;;
57599;SDS011;43426;43.594;24.334;2023-02-15T01:29:35;78.63;;;39.25;;
57599;SDS011;43426;43.594;24.334;2023-02-15T01:32:01;88.97;;;43.38;;
57599;SDS011;43426;43.594;24.334;2023-02-15T01:34:26;87.00;;;40.92;;
57599;SDS011;43426;43.594;24.334;2023-02-15T01:36:54;84.80;;;41.28;;
57599;SDS011;43426;43.594;24.334;2023-02-15T01:39:19;82.53;;;41.40;;
57599;SDS011;43426;43.594;24.334;2023-02-15T01:41:45;84.93;;;41.88;;
57599;SDS011;43426;43.594;24.334;2023-02-15T01:44:44;85.40;;;41.97;;
57599;SDS011;43426;43.594;24.334;2023-02-15T01:47:15;97.03;;;44.13;;
57599;SDS011;43426;43.594;24.334;2023-02-15T01:49:43;95.43;;;43.42;;
57599;SDS011;43426;43.594;24.334;2023-02-15T01:52:12;91.55;;;41.30;;
57599;SDS011;43426;43.594;24.334;2023-02-15T01:54:40;96.30;;;44.45;;
57599;SDS011;43426;43.594;24.334;2023-02-15T01:57:08;86.40;;;42.08;;
57599;SDS011;43426;43.594;24.334;2023-02-15T01:59:36;90.32;;;41.10;;
57599;SDS011;43426;43.594;24.334;2023-02-15T02:02:05;79.65;;;39.42;;
57599;SDS011;43426;43.594;24.334;2023-02-15T02:04:38;81.82;;;39.53;;
57599;SDS011;43426;43.594;24.334;2023-02-15T02:07:10;93.25;;;42.53;;
57599;SDS011;43426;43.594;24.334;2023-02-15T02:09:39;90.65;;;42.03;;
57599;SDS011;43426;43.594;24.334;2023-02-15T02:12:05;85.32;;;41.75;;
57599;SDS011;43426;43.594;24.334;2023-02-15T02:14:31;92.53;;;42.38;;
57599;SDS011;43426;43.594;24.334;2023-02-15T02:25:40;83.28;;;39.55;;
57599;SDS011;43426;43.594;24.334;2023-02-15T02:37:16;81.50;;;38.75;;
57599;SDS011;43426;43.594;24.334;2023-02-15T02:39:59;84.35;;;40.08;;
57599;SDS011;43426;43.594;24.334;2023-02-15T02:48:17;80.03;;;38.38;;
57599;SDS011;43426;43.594;24.334;2023-02-15T02:50:46;72.00;;;34.90;;
57599;SDS011;43426;43.594;24.334;2023-02-15T02:53:12;72.53;;;36.20;;
57599;SDS011;43426;43.594;24.334;2023-02-15T03:00:48;64.28;;;33.83;;
57599;SDS011;43426;43.594;24.334;2023-02-15T03:03:26;69.45;;;35.35;;
57599;SDS011;43426;43.594;24.334;2023-02-15T03:05:57;66.72;;;33.95;;
57599;SDS011;43426;43.594;24.334;2023-02-15T03:08:28;63.33;;;32.50;;
57599;SDS011;43426;43.594;24.334;2023-02-15T03:11:03;70.72;;;34.15;;
57599;SDS011;43426;43.594;24.334;2023-02-15T03:13:29;72.47;;;36.33;;
57599;SDS011;43426;43.594;24.334;2023-02-15T03:18:44;65.88;;;31.67;;
57599;SDS011;43426;43.594;24.334;2023-02-15T03:21:28;68.00;;;31.45;;
57599;SDS011;43426;43.594;24.334;2023-02-15T03:24:00;77.00;;;36.15;;
57599;SDS011;43426;43.594;24.334;2023-02-15T03:26:34;72.75;;;35.22;;
57599;SDS011;43426;43.594;24.334;2023-02-15T03:29:02;76.05;;;36.22;;
57599;SDS011;43426;43.594;24.334;2023-02-15T03:31:31;71.82;;;36.13;;
57599;SDS011;43426;43.594;24.334;2023-02-15T03:34:03;70.55;;;34.05;;
57599;SDS011;43426;43.594;24.334;2023-02-15T03:36:50;64.93;;;31.98;;
57599;SDS011;43426;43.594;24.334;2023-02-15T03:39:23;66.30;;;31.17;;
57599;SDS011;43426;43.594;24.334;2023-02-15T03:45:11;75.60;;;34.95;;
57599;SDS011;43426;43.594;24.334;2023-02-15T03:47:36;75.50;;;35.17;;
57599;SDS011;43426;43.594;24.334;2023-02-15T03:50:06;75.22;;;34.33;;
57599;SDS011;43426;43.594;24.334;2023-02-15T03:52:54;72.00;;;33.10;;
57599;SDS011;43426;43.594;24.334;2023-02-15T03:55:23;70.03;;;33.78;;
57599;SDS011;43426;43.594;24.334;2023-02-15T03:57:48;69.50;;;32.80;;
57599;SDS011;43426;43.594;24.334;2023-02-15T04:00:34;72.30;;;32.78;;
57599;SDS011;43426;43.594;24.334;2023-02-15T04:03:33;70.53;;;33.05;;
57599;SDS011;43426;43.594;24.334;2023-02-15T04:06:04;70.88;;;32.80;;
57599;SDS011;43426;43.594;24.334;2023-02-15T04:08:30;69.55;;;34.30;;
57599;SDS011;43426;43.594;24.334;2023-02-15T04:11:14;69.38;;;33.55;;
57599;SDS011;43426;43.594;24.334;2023-02-15T04:13:39;68.40;;;32.10;;
57599;SDS011;43426;43.594;24.334;2023-02-15T04:16:05;68.47;;;33.42;;
57599;SDS011;43426;43.594;24.334;2023-02-15T04:18:40;66.13;;;32.35;;
57599;SDS011;43426;43.594;24.334;2023-02-15T04:21:27;64.50;;;31.40;;
57599;SDS011;43426;43.594;24.334;2023-02-15T04:24:13;60.13;;;30.25;;
57599;SDS011;43426;43.594;24.334;2023-02-15T04:26:57;72.35;;;31.77;;
57599;SDS011;43426;43.594;24.334;2023-02-15T04:31:50;66.63;;;32.22;;
57599;SDS011;43426;43.594;24.334;2023-02-15T04:34:16;74.47;;;34.50;;
57599;SDS011;43426;43.594;24.334;2023-02-15T04:36:42;66.80;;;32.65;;
57599;SDS011;43426;43.594;24.334;2023-02-15T04:39:08;67.78;;;32.97;;
57599;SDS011;43426;43.594;24.334;2023-02-15T04:43:59;65.63;;;30.50;;
57599;SDS011;43426;43.594;24.334;2023-02-15T04:46:25;62.30;;;30.42;;
57599;SDS011;43426;43.594;24.334;2023-02-15T04:48:51;63.58;;;31.25;;
57599;SDS011;43426;43.594;24.334;2023-02-15T04:51:17;69.38;;;31.27;;
57599;SDS011;43426;43.594;24.334;2023-02-15T04:53:42;64.30;;;30.50;;
57599;SDS011;43426;43.594;24.334;2023-02-15T04:56:08;59.33;;;29.88;;
57599;SDS011;43426;43.594;24.334;2023-02-15T04:58:33;67.78;;;30.52;;
57599;SDS011;43426;43.594;24.334;2023-02-15T05:01:00;68.85;;;31.05;;
57599;SDS011;43426;43.594;24.334;2023-02-15T05:03:26;67.43;;;31.67;;
57599;SDS011;43426;43.594;24.334;2023-02-15T05:05:51;69.22;;;31.02;;
57599;SDS011;43426;43.594;24.334;2023-02-15T05:08:17;62.35;;;29.92;;
57599;SDS011;43426;43.594;24.334;2023-02-15T05:10:43;503.23;;;144.82;;
57599;SDS011;43426;43.594;24.334;2023-02-15T05:13:08;282.35;;;94.78;;
57599;SDS011;43426;43.594;24.334;2023-02-15T05:15:33;85.50;;;37.90;;
57599;SDS011;43426;43.594;24.334;2023-02-15T05:18:00;118.40;;;39.88;;
57599;SDS011;43426;43.594;24.334;2023-02-15T05:20:26;211.50;;;56.22;;
57599;SDS011;43426;43.594;24.334;2023-02-15T05:22:55;65.88;;;30.88;;
57599;SDS011;43426;43.594;24.334;2023-02-15T05:25:20;61.13;;;29.42;;
57599;SDS011;43426;43.594;24.334;2023-02-15T05:28:04;58.22;;;30.67;;
57599;SDS011;43426;43.594;24.334;2023-02-15T05:31:03;56.22;;;28.20;;
57599;SDS011;43426;43.594;24.334;2023-02-15T05:33:41;225.07;;;60.72;;
57599;SDS011;43426;43.594;24.334;2023-02-15T05:36:07;58.47;;;29.30;;
57599;SDS011;43426;43.594;24.334;2023-02-15T05:38:33;57.00;;;29.33;;
57599;SDS011;43426;43.594;24.334;2023-02-15T05:40:59;61.28;;;30.85;;
57599;SDS011;43426;43.594;24.334;2023-02-15T05:43:25;60.60;;;30.92;;
57599;SDS011;43426;43.594;24.334;2023-02-15T05:45:52;59.92;;;29.52;;
57599;SDS011;43426;43.594;24.334;2023-02-15T05:48:18;55.50;;;28.08;;
57599;SDS011;43426;43.594;24.334;2023-02-15T05:50:45;65.50;;;32.40;;
57599;SDS011;43426;43.594;24.334;2023-02-15T05:53:11;63.15;;;32.55;;
57599;SDS011;43426;43.594;24.334;2023-02-15T05:55:40;60.95;;;31.67;;
57599;SDS011;43426;43.594;24.334;2023-02-15T05:58:06;55.40;;;29.13;;
57599;SDS011;43426;43.594;24.334;2023-02-15T06:00:32;56.58;;;28.92;;
57599;SDS011;43426;43.594;24.334;2023-02-15T06:05:24;55.10;;;26.98;;
57599;SDS011;43426;43.594;24.334;2023-02-15T06:07:49;59.70;;;30.00;;
57599;SDS011;43426;43.594;24.334;2023-02-15T06:10:15;60.67;;;30.33;;
57599;SDS011;43426;43.594;24.334;2023-02-15T06:12:40;66.43;;;32.20;;
57599;SDS011;43426;43.594;24.334;2023-02-15T06:15:06;58.20;;;29.55;;
57599;SDS011;43426;43.594;24.334;2023-02-15T06:17:31;58.60;;;29.25;;
57599;SDS011;43426;43.594;24.334;2023-02-15T06:19:57;74.55;;;33.58;;
57599;SDS011;43426;43.594;24.334;2023-02-15T06:22:22;70.53;;;32.08;;
57599;SDS011;43426;43.594;24.334;2023-02-15T06:24:48;99.88;;;39.72;;
57599;SDS011;43426;43.594;24.334;2023-02-15T06:27:13;65.85;;;30.90;;
57599;SDS011;43426;43.594;24.334;2023-02-15T06:29:39;54.80;;;29.10;;
57599;SDS011;43426;43.594;24.334;2023-02-15T06:32:04;74.47;;;32.53;;
57599;SDS011;43426;43.594;24.334;2023-02-15T06:34:30;68.72;;;32.08;;
57599;SDS011;43426;43.594;24.334;2023-02-15T06:36:56;103.75;;;39.65;;
57599;SDS011;43426;43.594;24.334;2023-02-15T06:39:21;70.07;;;32.03;;
57599;SDS011;43426;43.594;24.334;2023-02-15T06:41:47;63.70;;;31.25;;
57599;SDS011;43426;43.594;24.334;2023-02-15T06:44:12;82.45;;;33.95;;
57599;SDS011;43426;43.594;24.334;2023-02-15T06:46:38;62.33;;;29.55;;
57599;SDS011;43426;43.594;24.334;2023-02-15T06:49:03;98.75;;;35.60;;
57599;SDS011;43426;43.594;24.334;2023-02-15T06:51:28;52.13;;;27.87;;
57599;SDS011;43426;43.594;24.334;2023-02-15T06:53:54;48.07;;;26.93;;
57599;SDS011;43426;43.594;24.334;2023-02-15T06:56:19;52.43;;;28.73;;
57599;SDS011;43426;43.594;24.334;2023-02-15T06:58:45;52.75;;;29.10;;
57599;SDS011;43426;43.594;24.334;2023-02-15T07:01:11;51.80;;;28.05;;
57599;SDS011;43426;43.594;24.334;2023-02-15T07:03:36;53.05;;;28.92;;
57599;SDS011;43426;43.594;24.334;2023-02-15T07:06:03;50.40;;;27.35;;
57599;SDS011;43426;43.594;24.334;2023-02-15T07:08:33;51.78;;;28.58;;
57599;SDS011;43426;43.594;24.334;2023-02-15T07:10:59;50.33;;;28.52;;
57599;SDS011;43426;43.594;24.334;2023-02-15T07:13:44;50.05;;;27.88;;
57599;SDS011;43426;43.594;24.334;2023-02-15T07:16:11;50.92;;;28.27;;
57599;SDS011;43426;43.594;24.334;2023-02-15T07:21:02;47.00;;;26.38;;
57599;SDS011;43426;43.594;24.334;2023-02-15T07:23:28;45.92;;;27.30;;
57599;SDS011;43426;43.594;24.334;2023-02-15T07:25:57;53.30;;;28.25;;
57599;SDS011;43426;43.594;24.334;2023-02-15T07:28:23;44.97;;;25.15;;
57599;SDS011;43426;43.594;24.334;2023-02-15T07:30:48;54.22;;;28.15;;
57599;SDS011;43426;43.594;24.334;2023-02-15T07:33:14;40.42;;;25.33;;
57599;SDS011;43426;43.594;24.334;2023-02-15T07:35:54;43.22;;;24.20;;
57599;SDS011;43426;43.594;24.334;2023-02-15T07:38:24;39.95;;;23.08;;
57599;SDS011;43426;43.594;24.334;2023-02-15T07:40:51;46.40;;;24.77;;
57599;SDS011;43426;43.594;24.334;2023-02-15T07:43:17;40.63;;;23.77;;
57599;SDS011;43426;43.594;24.334;2023-02-15T07:45:42;37.30;;;23.50;;
57599;SDS011;43426;43.594;24.334;2023-02-15T07:48:08;40.53;;;25.00;;
57599;SDS011;43426;43.594;24.334;2023-02-15T07:50:34;43.13;;;25.90;;
57599;SDS011;43426;43.594;24.334;2023-02-15T07:53:03;40.05;;;23.92;;
57599;SDS011;43426;43.594;24.334;2023-02-15T07:55:29;42.78;;;25.35;;
57599;SDS011;43426;43.594;24.334;2023-02-15T07:57:55;40.80;;;24.50;;
57599;SDS011;43426;43.594;24.334;2023-02-15T08:00:21;45.05;;;26.50;;
57599;SDS011;43426;43.594;24.334;2023-02-15T08:02:51;50.80;;;28.83;;
57599;SDS011;43426;43.594;24.334;2023-02-15T08:05:38;41.17;;;25.15;;
57599;SDS011;43426;43.594;24.334;2023-02-15T08:08:07;38.47;;;24.05;;
57599;SDS011;43426;43.594;24.334;2023-02-15T08:10:34;42.10;;;25.30;;
57599;SDS011;43426;43.594;24.334;2023-02-15T08:13:19;36.10;;;22.92;;
57599;SDS011;43426;43.594;24.334;2023-02-15T08:15:48;36.65;;;24.30;;
57599;SDS011;43426;43.594;24.334;2023-02-15T08:18:14;38.20;;;23.88;;
57599;SDS011;43426;43.594;24.334;2023-02-15T08:20:40;36.45;;;23.42;;
57599;SDS011;43426;43.594;24.334;2023-02-15T08:23:05;37.47;;;23.83;;
57599;SDS011;43426;43.594;24.334;2023-02-15T08:25:30;36.50;;;22.90;;
57599;SDS011;43426;43.594;24.334;2023-02-15T08:27:56;35.47;;;21.97;;
57599;SDS011;43426;43.594;24.334;2023-02-15T08:30:21;36.35;;;22.00;;
57599;SDS011;43426;43.594;24.334;2023-02-15T08:32:47;33.67;;;21.83;;
57599;SDS011;43426;43.594;24.334;2023-02-15T08:35:13;34.00;;;22.23;;
57599;SDS011;43426;43.594;24.334;2023-02-15T08:37:38;33.42;;;20.95;;
57599;SDS011;43426;43.594;24.334;2023-02-15T08:40:04;34.60;;;21.10;;
57599;SDS011;43426;43.594;24.334;2023-02-15T08:47:22;33.55;;;22.00;;
57599;SDS011;43426;43.594;24.334;2023-02-15T08:49:48;34.45;;;21.30;;
57599;SDS011;43426;43.594;24.334;2023-02-15T08:52:13;38.15;;;22.23;;
57599;SDS011;43426;43.594;24.334;2023-02-15T08:54:38;32.43;;;20.93;;
57599;SDS011;43426;43.594;24.334;2023-02-15T08:57:04;38.30;;;23.27;;
57599;SDS011;43426;43.594;24.334;2023-02-15T08:59:30;33.05;;;21.58;;
57599;SDS011;43426;43.594;24.334;2023-02-15T09:01:55;40.22;;;22.70;;
57599;SDS011;43426;43.594;24.334;2023-02-15T09:04:21;32.65;;;21.55;;
57599;SDS011;43426;43.594;24.334;2023-02-15T09:06:47;30.48;;;20.05;;
57599;SDS011;43426;43.594;24.334;2023-02-15T09:09:14;34.47;;;21.83;;
57599;SDS011;43426;43.594;24.334;2023-02-15T09:11:41;38.88;;;22.67;;
57599;SDS011;43426;43.594;24.334;2023-02-15T09:14:12;34.97;;;21.98;;
57599;SDS011;43426;43.594;24.334;2023-02-15T09:16:39;31.13;;;21.48;;
57599;SDS011;43426;43.594;24.334;2023-02-15T09:19:07;31.65;;;20.60;;
57599;SDS011;43426;43.594;24.334;2023-02-15T09:21:33;32.30;;;21.08;;
57599;SDS011;43426;43.594;24.334;2023-02-15T09:24:04;31.13;;;20.38;;
57599;SDS011;43426;43.594;24.334;2023-02-15T09:26:32;32.47;;;21.38;;
57599;SDS011;43426;43.594;24.334;2023-02-15T09:29:00;31.98;;;21.65;;
57599;SDS011;43426;43.594;24.334;2023-02-15T09:31:29;32.90;;;21.88;;
57599;SDS011;43426;43.594;24.334;2023-02-15T09:33:57;30.20;;;20.52;;
57599;SDS011;43426;43.594;24.334;2023-02-15T09:36:33;32.13;;;21.20;;
57599;SDS011;43426;43.594;24.334;2023-02-15T09:42:07;35.85;;;23.17;;
57599;SDS011;43426;43.594;24.334;2023-02-15T09:50:23;33.88;;;22.42;;
57599;SDS011;43426;43.594;24.334;2023-02-15T09:56:10;35.95;;;22.60;;
57599;SDS011;43426;43.594;24.334;2023-02-15T10:01:43;34.70;;;23.00;;
57599;SDS011;43426;43.594;24.334;2023-02-15T10:07:19;31.90;;;23.45;;
57599;SDS011;43426;43.594;24.334;2023-02-15T10:15:39;30.00;;;21.25;;
57599;SDS011;43426;43.594;24.334;2023-02-15T10:21:04;26.27;;;20.27;;
57599;SDS011;43426;43.594;24.334;2023-02-15T10:29:54;28.58;;;20.73;;
57599;SDS011;43426;43.594;24.334;2023-02-15T10:34:54;17.63;;;14.88;;
57599;SDS011;43426;43.594;24.334;2023-02-15T10:40:27;19.02;;;14.85;;
57599;SDS011;43426;43.594;24.334;2023-02-15T10:43:03;20.23;;;16.00;;
57599;SDS011;43426;43.594;24.334;2023-02-15T10:45:54;20.10;;;15.82;;
57599;SDS011;43426;43.594;24.334;2023-02-15T10:48:34;19.40;;;14.88;;
57599;SDS011;43426;43.594;24.334;2023-02-15T10:59:53;16.23;;;12.93;;
57599;SDS011;43426;43.594;24.334;2023-02-15T11:02:42;18.13;;;12.80;;
57599;SDS011;43426;43.594;24.334;2023-02-15T11:08:04;19.65;;;16.08;;
57599;SDS011;43426;43.594;24.334;2023-02-15T11:10:43;18.40;;;14.50;;
57599;SDS011;43426;43.594;24.334;2023-02-15T11:13:17;16.42;;;14.73;;
57599;SDS011;43426;43.594;24.334;2023-02-15T11:18:31;18.38;;;15.73;;
57599;SDS011;43426;43.594;24.334;2023-02-15T11:21:02;20.92;;;15.73;;
57599;SDS011;43426;43.594;24.334;2023-02-15T11:23:42;17.58;;;15.32;;
57599;SDS011;43426;43.594;24.334;2023-02-15T11:29:36;14.90;;;12.25;;
57599;SDS011;43426;43.594;24.334;2023-02-15T11:35:06;17.50;;;14.40;;
57599;SDS011;43426;43.594;24.334;2023-02-15T11:37:48;17.27;;;14.13;;
57599;SDS011;43426;43.594;24.334;2023-02-15T11:40:25;16.98;;;13.40;;
57599;SDS011;43426;43.594;24.334;2023-02-15T11:45:23;15.07;;;13.15;;
57599;SDS011;43426;43.594;24.334;2023-02-15T11:47:56;15.15;;;13.13;;
57599;SDS011;43426;43.594;24.334;2023-02-15T11:50:24;20.02;;;13.80;;
57599;SDS011;43426;43.594;24.334;2023-02-15T11:52:51;17.02;;;13.98;;
57599;SDS011;43426;43.594;24.334;2023-02-15T11:55:22;17.50;;;14.20;;
57599;SDS011;43426;43.594;24.334;2023-02-15T11:57:54;17.10;;;12.80;;
57599;SDS011;43426;43.594;24.334;2023-02-15T12:00:40;20.38;;;13.68;;
57599;SDS011;43426;43.594;24.334;2023-02-15T12:03:22;15.52;;;13.35;;
57599;SDS011;43426;43.594;24.334;2023-02-15T12:05:56;20.40;;;13.48;;
57599;SDS011;43426;43.594;24.334;2023-02-15T12:08:26;14.48;;;12.15;;
57599;SDS011;43426;43.594;24.334;2023-02-15T12:11:14;17.88;;;13.85;;
57599;SDS011;43426;43.594;24.334;2023-02-15T12:13:53;15.38;;;12.70;;
57599;SDS011;43426;43.594;24.334;2023-02-15T12:16:23;15.68;;;13.00;;
57599;SDS011;43426;43.594;24.334;2023-02-15T12:23:55;19.40;;;14.27;;
57599;SDS011;43426;43.594;24.334;2023-02-15T12:26:27;16.08;;;13.10;;
57599;SDS011;43426;43.594;24.334;2023-02-15T12:28:54;17.13;;;12.98;;
57599;SDS011;43426;43.594;24.334;2023-02-15T12:31:28;14.75;;;12.35;;
57599;SDS011;43426;43.594;24.334;2023-02-15T12:33:59;14.60;;;12.35;;
57599;SDS011;43426;43.594;24.334;2023-02-15T12:36:40;14.68;;;12.57;;
57599;SDS011;43426;43.594;24.334;2023-02-15T12:41:37;17.05;;;13.90;;
57599;SDS011;43426;43.594;24.334;2023-02-15T12:44:17;19.23;;;14.98;;
57599;SDS011;43426;43.594;24.334;2023-02-15T12:49:29;24.75;;;16.88;;
57599;SDS011;43426;43.594;24.334;2023-02-15T12:52:00;23.27;;;18.15;;
57599;SDS011;43426;43.594;24.334;2023-02-15T12:54:41;20.30;;;16.92;;
57599;SDS011;43426;43.594;24.334;2023-02-15T13:00:01;29.30;;;24.52;;
57599;SDS011;43426;43.594;24.334;2023-02-15T13:02:42;25.30;;;17.67;;
57599;SDS011;43426;43.594;24.334;2023-02-15T13:05:25;24.15;;;17.92;;
57599;SDS011;43426;43.594;24.334;2023-02-15T13:10:40;39.88;;;33.55;;
57599;SDS011;43426;43.594;24.334;2023-02-15T13:13:27;23.83;;;18.40;;
57599;SDS011;43426;43.594;24.334;2023-02-15T13:15:56;27.58;;;19.20;;
57599;SDS011;43426;43.594;24.334;2023-02-15T13:18:37;26.85;;;19.02;;
57599;SDS011;43426;43.594;24.334;2023-02-15T13:27:12;24.10;;;17.90;;
57599;SDS011;43426;43.594;24.334;2023-02-15T13:29:45;25.88;;;18.45;;
57599;SDS011;43426;43.594;24.334;2023-02-15T13:34:48;25.45;;;18.67;;
57599;SDS011;43426;43.594;24.334;2023-02-15T13:37:15;22.80;;;18.67;;
57599;SDS011;43426;43.594;24.334;2023-02-15T13:39:54;25.13;;;18.77;;
57599;SDS011;43426;43.594;24.334;2023-02-15T13:47:49;24.33;;;18.35;;
57599;SDS011;43426;43.594;24.334;2023-02-15T13:56:13;30.95;;;19.83;;
57599;SDS011;43426;43.594;24.334;2023-02-15T14:04:48;29.98;;;19.60;;
57599;SDS011;43426;43.594;24.334;2023-02-15T14:07:47;26.73;;;20.02;;
57599;SDS011;43426;43.594;24.334;2023-02-15T14:16:10;23.67;;;18.27;;
57599;SDS011;43426;43.594;24.334;2023-02-15T14:18:46;28.63;;;19.33;;
57599;SDS011;43426;43.594;24.334;2023-02-15T14:21:32;35.22;;;21.13;;
57599;SDS011;43426;43.594;24.334;2023-02-15T14:31:50;28.85;;;20.70;;
57599;SDS011;43426;43.594;24.334;2023-02-15T14:34:24;27.92;;;20.00;;
57599;SDS011;43426;43.594;24.334;2023-02-15T14:36:54;27.92;;;20.50;;
57599;SDS011;43426;43.594;24.334;2023-02-15T14:39:27;29.92;;;20.67;;
57599;SDS011;43426;43.594;24.334;2023-02-15T14:42:15;32.22;;;21.52;;
57599;SDS011;43426;43.594;24.334;2023-02-15T14:44:51;26.10;;;19.02;;
57599;SDS011;43426;43.594;24.334;2023-02-15T14:47:33;28.90;;;21.63;;
57599;SDS011;43426;43.594;24.334;2023-02-15T14:56:24;31.17;;;23.27;;
57599;SDS011;43426;43.594;24.334;2023-02-15T15:01:24;32.28;;;22.20;;
57599;SDS011;43426;43.594;24.334;2023-02-15T15:04:43;35.25;;;24.60;;
57599;SDS011;43426;43.594;24.334;2023-02-15T15:07:14;41.60;;;24.00;;
57599;SDS011;43426;43.594;24.334;2023-02-15T15:09:45;31.38;;;22.65;;
57599;SDS011;43426;43.594;24.334;2023-02-15T15:14:53;33.35;;;22.20;;
57599;SDS011;43426;43.594;24.334;2023-02-15T15:19:58;39.35;;;25.88;;
57599;SDS011;43426;43.594;24.334;2023-02-15T15:22:30;40.83;;;26.92;;
57599;SDS011;43426;43.594;24.334;2023-02-15T15:27:57;43.53;;;26.90;;
57599;SDS011;43426;43.594;24.334;2023-02-15T15:35:33;55.38;;;29.10;;
57599;SDS011;43426;43.594;24.334;2023-02-15T15:38:47;44.58;;;26.00;;
57599;SDS011;43426;43.594;24.334;2023-02-15T15:49:47;37.17;;;25.92;;
57599;SDS011;43426;43.594;24.334;2023-02-15T15:52:16;47.33;;;26.63;;
57599;SDS011;43426;43.594;24.334;2023-02-15T15:54:44;35.53;;;22.60;;
57599;SDS011;43426;43.594;24.334;2023-02-15T15:57:32;43.55;;;29.15;;
57599;SDS011;43426;43.594;24.334;2023-02-15T15:59:58;40.97;;;25.35;;
57599;SDS011;43426;43.594;24.334;2023-02-15T16:02:24;46.75;;;28.05;;
57599;SDS011;43426;43.594;24.334;2023-02-15T16:09:41;40.97;;;25.95;;
57599;SDS011;43426;43.594;24.334;2023-02-15T16:12:21;53.80;;;30.27;;
57599;SDS011;43426;43.594;24.334;2023-02-15T16:14:48;46.28;;;29.02;;
57599;SDS011;43426;43.594;24.334;2023-02-15T16:17:24;54.80;;;30.27;;
57599;SDS011;43426;43.594;24.334;2023-02-15T16:19:51;47.83;;;28.60;;
57599;SDS011;43426;43.594;24.334;2023-02-15T16:22:21;46.10;;;28.67;;
57599;SDS011;43426;43.594;24.334;2023-02-15T16:27:55;53.22;;;28.23;;
57599;SDS011;43426;43.594;24.334;2023-02-15T16:30:30;53.92;;;27.52;;
57599;SDS011;43426;43.594;24.334;2023-02-15T16:33:05;59.95;;;33.72;;
57599;SDS011;43426;43.594;24.334;2023-02-15T16:35:40;56.38;;;32.75;;
57599;SDS011;43426;43.594;24.334;2023-02-15T16:39:07;57.83;;;32.92;;
57599;SDS011;43426;43.594;24.334;2023-02-15T16:41:10;55.75;;;32.42;;
57599;SDS011;43426;43.594;24.334;2023-02-15T16:43:37;57.88;;;33.03;;
57599;SDS011;43426;43.594;24.334;2023-02-15T16:46:06;59.88;;;33.22;;
57599;SDS011;43426;43.594;24.334;2023-02-15T16:48:38;61.13;;;32.88;;
57599;SDS011;43426;43.594;24.334;2023-02-15T16:51:06;92.65;;;49.47;;
57599;SDS011;43426;43.594;24.334;2023-02-15T16:53:33;51.92;;;32.65;;
57599;SDS011;43426;43.594;24.334;2023-02-15T16:56:00;52.40;;;32.45;;
57599;SDS011;43426;43.594;24.334;2023-02-15T16:58:30;54.83;;;29.77;;
57599;SDS011;43426;43.594;24.334;2023-02-15T17:01:06;42.13;;;25.60;;
57599;SDS011;43426;43.594;24.334;2023-02-15T17:03:34;53.42;;;27.83;;
57599;SDS011;43426;43.594;24.334;2023-02-15T17:06:01;44.78;;;28.20;;
57599;SDS011;43426;43.594;24.334;2023-02-15T17:08:29;45.63;;;27.50;;
57599;SDS011;43426;43.594;24.334;2023-02-15T17:11:08;49.83;;;29.73;;
57599;SDS011;43426;43.594;24.334;2023-02-15T17:13:37;50.20;;;31.35;;
57599;SDS011;43426;43.594;24.334;2023-02-15T17:18:43;47.90;;;28.20;;
57599;SDS011;43426;43.594;24.334;2023-02-15T17:21:11;51.95;;;31.30;;
57599;SDS011;43426;43.594;24.334;2023-02-15T17:23:42;56.10;;;30.92;;
57599;SDS011;43426;43.594;24.334;2023-02-15T17:26:21;63.90;;;31.30;;
57599;SDS011;43426;43.594;24.334;2023-02-15T17:28:50;52.30;;;29.63;;
57599;SDS011;43426;43.594;24.334;2023-02-15T17:31:18;57.17;;;31.60;;
57599;SDS011;43426;43.594;24.334;2023-02-15T17:33:45;55.25;;;30.23;;
57599;SDS011;43426;43.594;24.334;2023-02-15T17:36:14;47.03;;;29.35;;
57599;SDS011;43426;43.594;24.334;2023-02-15T17:43:56;48.45;;;27.58;;
57599;SDS011;43426;43.594;24.334;2023-02-15T17:48:49;49.25;;;28.77;;
57599;SDS011;43426;43.594;24.334;2023-02-15T17:51:16;55.05;;;32.33;;
57599;SDS011;43426;43.594;24.334;2023-02-15T17:53:43;62.35;;;33.72;;
57599;SDS011;43426;43.594;24.334;2023-02-15T17:56:29;63.17;;;35.17;;
57599;SDS011;43426;43.594;24.334;2023-02-15T17:58:55;58.97;;;34.25;;
57599;SDS011;43426;43.594;24.334;2023-02-15T18:01:20;71.50;;;36.33;;
57599;SDS011;43426;43.594;24.334;2023-02-15T18:04:05;61.30;;;31.80;;
57599;SDS011;43426;43.594;24.334;2023-02-15T18:06:53;73.60;;;39.35;;
57599;SDS011;43426;43.594;24.334;2023-02-15T18:09:37;63.95;;;33.60;;